Terminal Aerodrome Forecast
Issued by NWS

Home | Current Version | Previous Version | Text Only | Print | Product List | Glossary On
Versions: 1 2 3 4 5 6 7 8 9 10 11 12 13 14 15 16 17 18 19 20 21 22 23 24 25 26
000
FTUS44 KLIX 270300 AAA
TAFHUM
TAF AMD
KHUM 270328Z 2703/2724 10012KT P6SM -RA BKN028 OVC040
     FM270900 11008KT 3SM SHRA OVC008
     FM271200 12010KT 3/4SM +SHRA OVC008
     FM271800 16011KT 3/4SM +TSRA OVC008CB=

USA.gov is the U.S. government's official web portal to all federal, state and local government web resources and services.